createdAt,value
2022-08-05T00:01:36.412Z,23.45
2022-08-05T00:04:18.305Z,23.41
2022-08-05T00:06:47.092Z,23.38
2022-08-05T00:09:15.988Z,23.31
2022-08-05T00:11:49.374Z,23.27
2022-08-05T00:14:27.558Z,23.22
2022-08-05T00:16:57.878Z,23.19
2022-08-05T00:19:33.698Z,23.13
2022-08-05T00:22:12.096Z,23.07
2022-08-05T00:24:42.426Z,23.04
2022-08-05T00:27:35.857Z,23.10
2022-08-05T00:29:58.919Z,23.24
2022-08-05T00:32:30.289Z,23.31
2022-08-05T00:35:06.919Z,23.30
2022-08-05T00:37:52.762Z,23.28
2022-08-05T00:40:27.164Z,23.28
2022-08-05T00:42:58.506Z,23.26
2022-08-05T00:45:37.909Z,23.20
2022-08-05T00:48:11.197Z,23.10
2022-08-05T00:50:44.218Z,23.02
2022-08-05T00:54:00.362Z,22.93
2022-08-05T00:56:00.449Z,22.89
2022-08-05T00:58:28.480Z,22.80
2022-08-05T01:00:56.637Z,22.73
2022-08-05T01:03:33.274Z,22.69
2022-08-05T01:06:05.385Z,22.75
2022-08-05T01:08:43.310Z,22.72
2022-08-05T01:11:22.151Z,22.73
2022-08-05T01:14:08.883Z,22.69
2022-08-05T01:16:41.831Z,22.64
2022-08-05T01:19:21.155Z,22.55
2022-08-05T01:22:27.801Z,22.49
2022-08-05T01:25:40.776Z,22.41
2022-08-05T01:28:24.494Z,22.34
2022-08-05T01:30:55.346Z,22.31
2022-08-05T01:33:26.255Z,22.22
2022-08-05T01:35:57.525Z,22.27
2022-08-05T01:38:30.193Z,22.25
2022-08-05T01:40:59.794Z,22.28
2022-08-05T01:43:32.803Z,22.35
2022-08-05T01:46:07.370Z,22.39
2022-08-05T01:48:49.674Z,22.41
2022-08-05T01:51:18.446Z,22.46
2022-08-05T01:53:57.545Z,22.53
2022-08-05T01:58:09.944Z,22.55
2022-08-05T01:59:22.956Z,22.56
2022-08-05T02:01:54.753Z,22.56
2022-08-05T02:04:25.553Z,22.51
2022-08-05T02:06:53.636Z,22.45
2022-08-05T02:09:21.760Z,22.38
2022-08-05T02:11:58.972Z,22.35
2022-08-05T02:14:32.621Z,22.27
2022-08-05T02:17:05.724Z,22.18
2022-08-05T02:19:47.007Z,22.11
2022-08-05T02:22:26.655Z,22.02
2022-08-05T02:25:00.165Z,21.98
2022-08-05T02:27:30.178Z,21.96
2022-08-05T02:30:18.942Z,21.88
2022-08-05T02:32:48.943Z,21.83
2022-08-05T02:35:27.680Z,21.80
2022-08-05T02:37:59.112Z,21.73
2022-08-05T02:40:28.653Z,21.69
2022-08-05T02:42:57.447Z,21.69
2022-08-05T02:45:28.993Z,21.69
2022-08-05T02:48:17.322Z,21.71
2022-08-05T02:50:47.211Z,21.70
2022-08-05T02:53:18.895Z,21.69
2022-08-05T02:55:54.923Z,21.70
2022-08-05T02:58:28.925Z,21.67
2022-08-05T03:01:02.378Z,21.67
2022-08-05T03:03:34.354Z,21.69
2022-08-05T03:06:54.852Z,21.70
2022-08-05T03:09:08.956Z,21.83
2022-08-05T03:11:54.886Z,21.91
2022-08-05T03:14:26.699Z,22.10
2022-08-05T03:16:56.039Z,22.24
2022-08-05T03:19:33.122Z,22.44
2022-08-05T03:22:02.285Z,22.52
2022-08-05T03:24:33.728Z,22.56
2022-08-05T03:27:03.156Z,22.55
2022-08-05T03:29:45.119Z,22.59
2022-08-05T03:32:30.917Z,22.58
2022-08-05T03:34:59.729Z,22.55
2022-08-05T03:37:28.861Z,22.48
2022-08-05T03:39:59.022Z,22.45
2022-08-05T03:42:32.346Z,22.44
2022-08-05T03:45:01.879Z,22.39
2022-08-05T03:47:50.351Z,22.39
2022-08-05T03:50:18.459Z,22.39
2022-08-05T03:55:00.072Z,22.42
2022-08-05T03:56:04.501Z,22.46
2022-08-05T03:58:33.313Z,22.52
2022-08-05T04:01:04.072Z,22.66
2022-08-05T04:03:37.968Z,22.73
2022-08-05T04:06:08.684Z,22.82
2022-08-05T04:08:37.170Z,22.85
2022-08-05T04:11:07.326Z,22.87
2022-08-05T04:13:51.027Z,22.92
2022-08-05T04:16:25.336Z,23.00
2022-08-05T04:19:01.585Z,23.12
2022-08-05T04:22:09.669Z,23.20
2022-08-05T04:24:19.464Z,23.26
2022-08-05T04:26:50.682Z,23.35
2022-08-05T04:29:19.673Z,23.57
2022-08-05T04:31:48.514Z,23.81
2022-08-05T04:34:33.750Z,24.02
2022-08-05T04:37:04.011Z,24.23
2022-08-05T04:39:35.182Z,24.53
2022-08-05T04:42:04.446Z,24.88
2022-08-05T04:44:32.488Z,25.22
2022-08-05T04:47:08.989Z,25.63
2022-08-05T04:50:03.071Z,25.93
2022-08-05T04:52:28.399Z,26.24
2022-08-05T04:54:56.891Z,26.48
2022-08-05T04:57:28.585Z,26.68
2022-08-05T04:59:58.555Z,26.76
2022-08-05T05:02:41.277Z,26.82
2022-08-05T05:05:16.618Z,26.75
2022-08-05T05:07:56.700Z,26.60
2022-08-05T05:10:29.969Z,26.35
2022-08-05T05:12:58.094Z,26.17
2022-08-05T05:15:57.608Z,26.04
2022-08-05T05:18:28.283Z,25.89
2022-08-05T05:21:00.506Z,25.83
2022-08-05T05:24:01.613Z,25.75
2022-08-05T05:26:16.498Z,25.69
2022-08-05T05:28:45.103Z,25.67
2022-08-05T05:31:13.498Z,25.69
2022-08-05T05:33:59.329Z,25.62
2022-08-05T05:36:29.975Z,25.42
2022-08-05T05:38:58.511Z,25.31
2022-08-05T05:41:40.841Z,25.29
2022-08-05T05:44:36.105Z,25.10
2022-08-05T05:47:04.355Z,24.83
2022-08-05T05:49:35.736Z,24.68
2022-08-05T05:52:06.008Z,24.61
2022-08-05T05:54:50.456Z,24.59
2022-08-05T05:57:19.742Z,24.44
2022-08-05T05:59:48.783Z,24.35
2022-08-05T06:02:32.716Z,24.41
2022-08-05T06:05:10.403Z,24.47
2022-08-05T06:08:01.173Z,24.56
2022-08-05T06:10:36.499Z,24.67
2022-08-05T06:13:05.845Z,24.91
2022-08-05T06:16:30.953Z,25.25
2022-08-05T06:18:21.987Z,25.63
2022-08-05T06:20:59.801Z,25.84
2022-08-05T06:23:43.499Z,25.89
2022-08-05T06:26:20.489Z,25.94
2022-08-05T06:28:51.856Z,25.98
2022-08-05T06:31:21.891Z,25.96
2022-08-05T06:34:05.957Z,26.17
2022-08-05T06:36:37.478Z,26.25
2022-08-05T06:39:24.649Z,26.24
2022-08-05T06:41:55.710Z,26.27
2022-08-05T06:44:25.376Z,26.10
2022-08-05T06:46:54.351Z,26.00
2022-08-05T06:50:00.539Z,25.90
2022-08-05T06:52:36.774Z,25.83
2022-08-05T06:54:59.964Z,25.53
2022-08-05T06:58:03.070Z,25.29
2022-08-05T07:00:24.576Z,25.11
2022-08-05T07:02:53.828Z,25.01
2022-08-05T07:05:37.061Z,24.83
2022-08-05T07:08:06.351Z,24.61
2022-08-05T07:10:52.798Z,24.51
2022-08-05T07:13:57.730Z,24.44
2022-08-05T07:17:56.690Z,24.36
2022-08-05T07:22:28.907Z,23.84
2022-08-05T07:25:21.908Z,23.45
2022-08-05T07:27:58.527Z,23.28
2022-08-05T07:30:33.446Z,23.22
2022-08-05T07:33:05.396Z,23.14
2022-08-05T07:36:04.000Z,23.09
2022-08-05T07:38:32.122Z,23.02
2022-08-05T07:42:07.277Z,22.77
2022-08-05T07:43:56.344Z,22.53
2022-08-05T07:46:26.403Z,22.24
2022-08-05T07:49:01.615Z,22.11
2022-08-05T07:51:40.347Z,22.00
2022-08-05T07:54:10.559Z,21.97
2022-08-05T07:57:01.717Z,22.04
2022-08-05T07:59:38.052Z,22.18
2022-08-05T08:02:15.830Z,22.29
2022-08-05T08:04:49.223Z,22.29
2022-08-05T08:07:22.407Z,22.29
2022-08-05T08:09:54.837Z,22.51
2022-08-05T08:12:35.639Z,22.65
2022-08-05T08:15:13.879Z,22.89
2022-08-05T08:17:44.039Z,23.19
2022-08-05T08:20:44.402Z,23.47
2022-08-05T08:23:07.502Z,23.65
2022-08-05T08:26:02.443Z,23.75
2022-08-05T08:28:36.630Z,23.81
2022-08-05T08:31:07.568Z,23.88
2022-08-05T08:33:37.868Z,23.86
2022-08-05T08:38:56.162Z,23.99
2022-08-05T08:41:52.050Z,24.03
2022-08-05T08:45:22.191Z,24.09
2022-08-05T08:47:47.576Z,24.10
2022-08-05T08:50:23.042Z,24.19
2022-08-05T08:52:43.557Z,24.29
2022-08-05T08:56:01.939Z,24.30
2022-08-05T08:58:08.580Z,24.33
2022-08-05T09:00:36.969Z,24.28
2022-08-05T09:03:07.780Z,24.28
2022-08-05T09:05:38.334Z,24.28
2022-08-05T09:08:27.478Z,24.33
2022-08-05T09:10:58.644Z,24.57
2022-08-05T09:13:31.673Z,24.90
2022-08-05T09:16:17.138Z,25.08
2022-08-05T09:18:46.837Z,25.11
2022-08-05T09:21:20.931Z,25.18
2022-08-05T09:24:04.608Z,25.19
2022-08-05T09:26:35.082Z,25.18
2022-08-05T09:29:08.810Z,24.76
2022-08-05T09:32:40.811Z,24.29
2022-08-05T09:34:27.385Z,23.99
2022-08-05T09:36:59.356Z,23.88
2022-08-05T09:39:44.995Z,23.81
2022-08-05T09:42:22.968Z,23.65
2022-08-05T09:44:56.483Z,23.37
2022-08-05T09:47:36.478Z,23.14
2022-08-05T09:50:37.331Z,23.00
2022-08-05T09:53:07.009Z,22.95
2022-08-05T09:55:56.714Z,22.87
2022-08-05T09:58:26.111Z,22.80
2022-08-05T10:01:01.694Z,22.90
2022-08-05T10:03:58.868Z,23.12
2022-08-05T10:06:29.267Z,23.30
2022-08-05T10:09:24.980Z,23.38
2022-08-05T10:12:30.655Z,23.40
2022-08-05T10:15:16.306Z,23.45
2022-08-05T10:17:56.783Z,23.54
2022-08-05T10:20:26.628Z,23.64
2022-08-05T10:22:57.121Z,23.65
2022-08-05T10:25:26.642Z,23.79
2022-08-05T10:28:13.681Z,23.93
2022-08-05T10:32:48.045Z,24.13
2022-08-05T10:33:34.200Z,24.41
2022-08-05T10:36:05.298Z,24.98
2022-08-05T10:38:36.254Z,25.72
2022-08-05T10:41:10.160Z,26.37
2022-08-05T10:43:49.180Z,27.06
2022-08-05T10:46:24.103Z,27.73
2022-08-05T10:49:02.661Z,28.32
2022-08-05T10:51:48.626Z,28.72
2022-08-05T10:54:55.923Z,29.03
2022-08-05T10:57:30.975Z,29.20
2022-08-05T11:00:14.757Z,29.42
2022-08-05T11:03:24.924Z,29.49
2022-08-05T11:06:16.184Z,29.45
2022-08-05T11:09:16.686Z,29.55
2022-08-05T11:11:53.166Z,29.88
2022-08-05T11:15:19.774Z,30.01
2022-08-05T11:17:58.827Z,30.40
2022-08-05T11:20:38.937Z,30.84
2022-08-05T11:24:05.259Z,30.99
2022-08-05T11:26:28.545Z,31.00
2022-08-05T11:29:11.724Z,31.02
2022-08-05T11:31:53.913Z,31.19
2022-08-05T11:34:38.612Z,31.50
2022-08-05T11:38:30.516Z,31.77
2022-08-05T11:40:00.549Z,32.18
2022-08-05T11:42:40.281Z,32.47
2022-08-05T11:45:14.538Z,32.74
2022-08-05T11:47:55.300Z,32.93
2022-08-05T11:50:23.529Z,33.13
2022-08-05T11:52:57.696Z,33.06
2022-08-05T11:55:31.931Z,32.95
2022-08-05T11:58:10.935Z,32.64
2022-08-05T12:00:44.188Z,32.38
2022-08-05T12:03:29.328Z,32.28
2022-08-05T12:06:01.491Z,32.32
2022-08-05T12:08:31.531Z,32.27
2022-08-05T12:11:06.133Z,32.11
2022-08-05T12:13:49.613Z,31.84
2022-08-05T12:16:25.711Z,31.49
2022-08-05T12:18:55.820Z,31.23
2022-08-05T12:21:26.951Z,31.06
2022-08-05T12:24:03.329Z,30.81
2022-08-05T12:26:34.463Z,30.77
2022-08-05T12:29:03.494Z,30.82
2022-08-05T12:31:46.105Z,30.88
2022-08-05T12:34:20.481Z,30.94
2022-08-05T12:36:53.446Z,30.84
2022-08-05T12:39:23.544Z,30.65
2022-08-05T12:41:58.884Z,30.44
2022-08-05T12:44:33.333Z,30.33
2022-08-05T12:47:03.794Z,30.06
2022-08-05T12:50:04.464Z,29.92
2022-08-05T12:52:39.014Z,29.93
2022-08-05T12:55:22.305Z,29.90
2022-08-05T12:58:49.831Z,29.92
2022-08-05T13:02:01.665Z,29.92
2022-08-05T13:03:33.285Z,30.01
2022-08-05T13:06:02.568Z,30.01
2022-08-05T13:08:32.447Z,30.12
2022-08-05T13:11:01.900Z,30.26
2022-08-05T13:14:05.050Z,30.31
2022-08-05T13:16:20.851Z,30.33
2022-08-05T13:18:57.968Z,30.27
2022-08-05T13:21:27.930Z,30.13
2022-08-05T13:24:09.442Z,30.01
2022-08-05T13:26:41.341Z,29.83
2022-08-05T13:29:37.850Z,29.75
2022-08-05T13:32:06.518Z,29.69
2022-08-05T13:34:36.438Z,29.69
2022-08-05T13:37:09.505Z,29.68
2022-08-05T13:40:15.891Z,29.69
2022-08-05T13:42:28.850Z,29.66
2022-08-05T13:44:57.596Z,29.73
2022-08-05T13:47:35.982Z,29.76
2022-08-05T13:50:17.054Z,29.78
2022-08-05T13:52:45.099Z,29.76
2022-08-05T13:55:41.714Z,29.75
2022-08-05T13:58:05.942Z,29.82
2022-08-05T14:00:36.376Z,29.99
2022-08-05T14:03:04.886Z,30.07
2022-08-05T14:06:04.680Z,30.17
2022-08-05T14:08:27.936Z,30.17
2022-08-05T14:10:59.668Z,30.10
2022-08-05T14:13:32.279Z,30.10
2022-08-05T14:16:08.865Z,30.16
2022-08-05T14:18:39.107Z,30.21
2022-08-05T14:22:07.704Z,30.27
2022-08-05T14:23:56.816Z,30.36
2022-08-05T14:26:36.983Z,30.24
2022-08-05T14:29:16.158Z,29.93
2022-08-05T14:32:02.883Z,29.69
2022-08-05T14:34:35.528Z,29.45
2022-08-05T14:37:05.655Z,29.15
2022-08-05T14:39:50.191Z,28.94
2022-08-05T14:42:22.825Z,28.76
2022-08-05T14:44:53.093Z,28.56
2022-08-05T14:48:02.767Z,28.37
2022-08-05T14:50:17.685Z,28.24
2022-08-05T14:52:58.716Z,28.02
2022-08-05T14:55:38.529Z,27.85
2022-08-05T14:58:11.157Z,27.64
2022-08-05T15:00:58.227Z,27.44
2022-08-05T15:03:33.198Z,27.22
2022-08-05T15:06:08.127Z,27.03
2022-08-05T15:09:01.186Z,26.85
2022-08-05T15:11:50.859Z,26.65
2022-08-05T15:14:34.426Z,26.45
2022-08-05T15:17:05.375Z,26.27
2022-08-05T15:19:38.055Z,26.14
2022-08-05T15:22:08.752Z,25.97
2022-08-05T15:24:39.613Z,25.84
2022-08-05T15:27:09.147Z,25.76
2022-08-05T15:29:42.192Z,25.70
2022-08-05T15:32:10.290Z,25.66
2022-08-05T15:34:38.341Z,25.58
2022-08-05T15:37:14.747Z,25.53
2022-08-05T15:40:58.917Z,25.45
2022-08-05T15:42:55.825Z,25.36
2022-08-05T15:45:38.253Z,25.29
2022-08-05T15:48:07.092Z,25.24
2022-08-05T15:50:35.179Z,25.14
2022-08-05T15:53:05.186Z,25.07
2022-08-05T15:56:02.466Z,25.04
2022-08-05T15:58:23.435Z,24.94
2022-08-05T16:01:11.706Z,24.87
2022-08-05T16:03:41.196Z,24.73
2022-08-05T16:06:11.404Z,24.66
2022-08-05T16:08:40.143Z,24.57
2022-08-05T16:11:11.337Z,24.49
2022-08-05T16:13:41.773Z,24.39
2022-08-05T16:16:11.940Z,24.28
2022-08-05T16:18:52.768Z,24.15
2022-08-05T16:22:00.160Z,23.96
2022-08-05T16:24:12.712Z,23.81
2022-08-05T16:27:00.302Z,23.71
2022-08-05T16:29:31.224Z,23.65
2022-08-05T16:32:06.572Z,23.54
2022-08-05T16:34:41.694Z,23.48
2022-08-05T16:38:01.915Z,23.41
2022-08-05T16:40:04.491Z,23.31
2022-08-05T16:42:36.312Z,23.27
2022-08-05T16:45:06.230Z,23.19
2022-08-05T16:47:55.461Z,23.07
2022-08-05T16:50:26.625Z,22.97
2022-08-05T16:52:56.386Z,22.92
2022-08-05T16:55:24.695Z,22.82
2022-08-05T16:58:01.254Z,22.58
2022-08-05T17:00:34.808Z,22.31
2022-08-05T17:03:03.697Z,22.04
2022-08-05T17:05:37.599Z,21.76
2022-08-05T17:08:05.966Z,21.45
2022-08-05T17:10:36.575Z,21.25
2022-08-05T17:13:16.972Z,21.11
2022-08-05T17:15:58.807Z,20.96
2022-08-05T17:18:37.292Z,20.87
2022-08-05T17:21:07.211Z,20.78
2022-08-05T17:24:05.450Z,20.67
2022-08-05T17:26:23.580Z,20.71
2022-08-05T17:28:52.895Z,20.92
2022-08-05T17:31:24.489Z,20.95
2022-08-05T17:34:08.853Z,20.91
2022-08-05T17:36:40.709Z,20.92
2022-08-05T17:39:23.902Z,20.84
2022-08-05T17:42:19.871Z,20.80
2022-08-05T17:44:50.357Z,20.81
2022-08-05T17:47:22.197Z,20.75
2022-08-05T17:49:52.281Z,20.73
2022-08-05T17:52:29.084Z,20.71
2022-08-05T17:54:57.077Z,20.65
2022-08-05T17:57:25.064Z,20.64
2022-08-05T18:00:05.472Z,20.60
2022-08-05T18:02:34.117Z,20.51
2022-08-05T18:05:06.476Z,20.43
2022-08-05T18:07:41.583Z,20.36
2022-08-05T18:10:14.060Z,20.27
2022-08-05T18:12:49.383Z,20.22
2022-08-05T18:15:18.994Z,20.19
2022-08-05T18:18:00.710Z,20.10
2022-08-05T18:20:32.283Z,20.09
2022-08-05T18:23:08.994Z,20.09
2022-08-05T18:25:38.982Z,20.02
2022-08-05T18:28:07.628Z,20.03
2022-08-05T18:30:39.080Z,19.95
2022-08-05T18:33:08.875Z,19.87
2022-08-05T18:36:01.293Z,19.78
2022-08-05T18:38:31.159Z,19.72
2022-08-05T18:41:55.476Z,19.62
2022-08-05T18:43:48.986Z,19.57
2022-08-05T18:46:19.720Z,19.50
2022-08-05T18:48:51.612Z,19.48
2022-08-05T18:52:05.293Z,19.48
2022-08-05T18:54:26.295Z,19.44
2022-08-05T18:56:57.209Z,19.37
2022-08-05T18:59:43.382Z,19.31
2022-08-05T19:02:26.592Z,19.26
2022-08-05T19:06:12.056Z,19.26
2022-08-05T19:08:00.282Z,19.20
2022-08-05T19:10:28.891Z,19.18
2022-08-05T19:12:57.229Z,19.14
2022-08-05T19:15:59.246Z,19.14
2022-08-05T19:18:22.293Z,19.08
2022-08-05T19:20:52.032Z,19.04
2022-08-05T19:24:03.843Z,19.02
2022-08-05T19:26:09.350Z,18.99
2022-08-05T19:28:41.574Z,18.92
2022-08-05T19:31:13.667Z,18.86
2022-08-05T19:33:48.279Z,18.80
2022-08-05T19:36:24.327Z,18.78
2022-08-05T19:38:52.478Z,18.75
2022-08-05T19:41:22.011Z,18.71
2022-08-05T19:44:13.848Z,18.66
2022-08-05T19:46:43.563Z,18.61
2022-08-05T19:49:16.877Z,18.52
2022-08-05T19:52:05.013Z,18.44
2022-08-05T19:54:35.004Z,18.39
2022-08-05T19:57:08.675Z,18.38
2022-08-05T19:59:56.151Z,18.34
2022-08-05T20:02:31.291Z,18.29
2022-08-05T20:05:00.967Z,18.24
2022-08-05T20:07:47.312Z,18.16
2022-08-05T20:10:17.112Z,18.16
2022-08-05T20:12:48.174Z,18.10
2022-08-05T20:15:22.928Z,18.04
2022-08-05T20:18:10.042Z,18.01
2022-08-05T20:20:44.246Z,17.97
2022-08-05T20:23:12.926Z,17.91
2022-08-05T20:25:41.073Z,17.84
2022-08-05T20:28:14.577Z,17.79
2022-08-05T20:30:42.651Z,17.70
2022-08-05T20:33:10.661Z,17.65
2022-08-05T20:35:40.593Z,17.56
2022-08-05T20:38:20.047Z,17.49
2022-08-05T20:40:56.413Z,17.45
2022-08-05T20:43:33.147Z,17.42
2022-08-05T20:46:18.633Z,17.39
2022-08-05T20:48:53.357Z,17.41
2022-08-05T20:51:24.078Z,17.39
2022-08-05T20:53:55.092Z,17.42
2022-08-05T20:56:29.704Z,17.41
2022-08-05T20:59:00.163Z,17.41
2022-08-05T21:01:39.447Z,17.45
2022-08-05T21:04:10.406Z,17.45
2022-08-05T21:06:45.531Z,17.45
2022-08-05T21:09:15.064Z,17.43
2022-08-05T21:12:10.586Z,17.39
2022-08-05T21:14:34.713Z,17.36
2022-08-05T21:17:04.980Z,17.35
2022-08-05T21:19:47.444Z,17.32
2022-08-05T21:22:21.865Z,17.32
2022-08-05T21:24:52.734Z,17.28
2022-08-05T21:27:25.146Z,17.29
2022-08-05T21:29:54.170Z,17.34
2022-08-05T21:32:24.409Z,17.34
2022-08-05T21:34:55.869Z,17.36
2022-08-05T21:37:41.067Z,17.38
2022-08-05T21:40:13.080Z,17.38
2022-08-05T21:42:45.330Z,17.39
2022-08-05T21:45:24.017Z,17.42
2022-08-05T21:47:57.653Z,17.42
2022-08-05T21:50:26.374Z,17.45
2022-08-05T21:52:59.032Z,17.45
2022-08-05T21:56:00.949Z,17.43
2022-08-05T21:58:28.837Z,17.43
2022-08-05T22:01:00.769Z,17.45
2022-08-05T22:03:48.946Z,17.46
2022-08-05T22:06:22.351Z,17.45
2022-08-05T22:08:53.064Z,17.48
2022-08-05T22:11:34.378Z,17.49
2022-08-05T22:14:05.924Z,17.55
2022-08-05T22:16:51.905Z,17.66
2022-08-05T22:20:00.541Z,17.74
2022-08-05T22:22:12.808Z,17.86
2022-08-05T22:25:17.697Z,17.89
2022-08-05T22:28:04.957Z,17.83
2022-08-05T22:30:56.462Z,17.74
2022-08-05T22:33:57.662Z,17.73
2022-08-05T22:36:15.221Z,17.67
2022-08-05T22:38:48.141Z,17.58
2022-08-05T22:41:26.504Z,17.53
2022-08-05T22:44:08.183Z,17.42
2022-08-05T22:46:39.487Z,17.35
2022-08-05T22:49:23.042Z,17.29
2022-08-05T22:52:04.842Z,17.21
2022-08-05T22:54:36.115Z,17.16
2022-08-05T22:57:05.786Z,17.11
2022-08-05T22:59:46.086Z,17.04
2022-08-05T23:02:17.369Z,17.00
2022-08-05T23:04:52.097Z,16.90
2022-08-05T23:07:21.987Z,16.88
2022-08-05T23:09:57.374Z,16.87
2022-08-05T23:12:32.483Z,16.84
2022-08-05T23:15:03.633Z,16.81
2022-08-05T23:17:37.091Z,16.74
2022-08-05T23:20:10.206Z,16.67
2022-08-05T23:22:47.654Z,16.64
2022-08-05T23:25:50.296Z,16.63
2022-08-05T23:28:07.623Z,16.67
2022-08-05T23:30:40.153Z,16.60
2022-08-05T23:33:16.478Z,16.59
2022-08-05T23:35:51.029Z,16.53
2022-08-05T23:38:19.376Z,16.47
2022-08-05T23:40:49.395Z,16.40
2022-08-05T23:43:25.138Z,16.35
2022-08-05T23:46:21.011Z,16.30
2022-08-05T23:49:00.305Z,16.23
2022-08-05T23:51:55.010Z,16.08
2022-08-05T23:54:25.746Z,16.00
2022-08-05T23:56:55.923Z,15.90
2022-08-05T23:59:37.754Z,15.81
